sensor_id;sensor_type;location;lat;lon;timestamp;P1;durP1;ratioP1;P2;durP2;ratioP2
57565;SDS011;63999;43.882;-0.310;2023-02-15T00:00:33;13.05;;;9.70;;
57565;SDS011;63999;43.882;-0.310;2023-02-15T00:03:01;13.38;;;9.18;;
57565;SDS011;63999;43.882;-0.310;2023-02-15T00:05:30;12.93;;;9.80;;
57565;SDS011;63999;43.882;-0.310;2023-02-15T00:07:57;13.93;;;10.35;;
57565;SDS011;63999;43.882;-0.310;2023-02-15T00:10:24;13.10;;;9.60;;
57565;SDS011;63999;43.882;-0.310;2023-02-15T00:12:51;12.70;;;9.68;;
57565;SDS011;63999;43.882;-0.310;2023-02-15T00:15:18;14.85;;;10.73;;
57565;SDS011;63999;43.882;-0.310;2023-02-15T00:17:45;12.43;;;9.43;;
57565;SDS011;63999;43.882;-0.310;2023-02-15T00:20:12;16.10;;;9.68;;
57565;SDS011;63999;43.882;-0.310;2023-02-15T00:22:39;12.52;;;9.45;;
57565;SDS011;63999;43.882;-0.310;2023-02-15T00:25:07;13.90;;;10.23;;
57565;SDS011;63999;43.882;-0.310;2023-02-15T00:27:33;15.45;;;10.18;;
57565;SDS011;63999;43.882;-0.310;2023-02-15T00:30:01;13.65;;;9.70;;
57565;SDS011;63999;43.882;-0.310;2023-02-15T00:32:28;13.95;;;10.20;;
57565;SDS011;63999;43.882;-0.310;2023-02-15T00:34:56;12.07;;;9.30;;
57565;SDS011;63999;43.882;-0.310;2023-02-15T00:37:22;11.93;;;9.05;;
57565;SDS011;63999;43.882;-0.310;2023-02-15T00:39:50;11.23;;;8.60;;
57565;SDS011;63999;43.882;-0.310;2023-02-15T00:42:17;11.82;;;9.27;;
57565;SDS011;63999;43.882;-0.310;2023-02-15T00:44:44;12.73;;;9.52;;
57565;SDS011;63999;43.882;-0.310;2023-02-15T00:47:11;11.07;;;9.30;;
57565;SDS011;63999;43.882;-0.310;2023-02-15T00:49:39;13.18;;;9.32;;
57565;SDS011;63999;43.882;-0.310;2023-02-15T00:52:05;13.98;;;9.70;;
57565;SDS011;63999;43.882;-0.310;2023-02-15T00:54:32;11.88;;;9.45;;
57565;SDS011;63999;43.882;-0.310;2023-02-15T00:57:00;14.07;;;9.93;;
57565;SDS011;63999;43.882;-0.310;2023-02-15T00:59:28;15.50;;;9.55;;
57565;SDS011;63999;43.882;-0.310;2023-02-15T01:01:55;13.02;;;10.35;;
57565;SDS011;63999;43.882;-0.310;2023-02-15T01:04:22;12.68;;;9.60;;
57565;SDS011;63999;43.882;-0.310;2023-02-15T01:06:49;14.02;;;9.50;;
57565;SDS011;63999;43.882;-0.310;2023-02-15T01:09:17;13.27;;;9.43;;
57565;SDS011;63999;43.882;-0.310;2023-02-15T01:11:43;14.90;;;9.70;;
57565;SDS011;63999;43.882;-0.310;2023-02-15T01:14:11;13.90;;;9.60;;
57565;SDS011;63999;43.882;-0.310;2023-02-15T01:16:39;16.65;;;10.52;;
57565;SDS011;63999;43.882;-0.310;2023-02-15T01:19:06;13.65;;;10.07;;
57565;SDS011;63999;43.882;-0.310;2023-02-15T01:21:33;13.00;;;9.75;;
57565;SDS011;63999;43.882;-0.310;2023-02-15T01:24:01;14.15;;;9.80;;
57565;SDS011;63999;43.882;-0.310;2023-02-15T01:26:27;16.17;;;9.75;;
57565;SDS011;63999;43.882;-0.310;2023-02-15T01:28:55;14.63;;;9.68;;
57565;SDS011;63999;43.882;-0.310;2023-02-15T01:31:21;11.55;;;9.52;;
57565;SDS011;63999;43.882;-0.310;2023-02-15T01:33:47;11.43;;;8.65;;
57565;SDS011;63999;43.882;-0.310;2023-02-15T01:36:13;10.77;;;8.80;;
57565;SDS011;63999;43.882;-0.310;2023-02-15T01:38:39;12.73;;;8.93;;
57565;SDS011;63999;43.882;-0.310;2023-02-15T01:41:06;12.57;;;9.52;;
57565;SDS011;63999;43.882;-0.310;2023-02-15T01:43:53;13.05;;;9.40;;
57565;SDS011;63999;43.882;-0.310;2023-02-15T01:46:26;13.98;;;10.02;;
57565;SDS011;63999;43.882;-0.310;2023-02-15T01:49:10;15.02;;;9.75;;
57565;SDS011;63999;43.882;-0.310;2023-02-15T01:51:39;15.27;;;10.27;;
57565;SDS011;63999;43.882;-0.310;2023-02-15T01:57:03;16.88;;;9.70;;
57565;SDS011;63999;43.882;-0.310;2023-02-15T01:59:34;12.18;;;9.70;;
57565;SDS011;63999;43.882;-0.310;2023-02-15T02:02:02;12.07;;;9.73;;
57565;SDS011;63999;43.882;-0.310;2023-02-15T02:04:33;12.80;;;9.10;;
57565;SDS011;63999;43.882;-0.310;2023-02-15T02:07:06;13.10;;;9.88;;
57565;SDS011;63999;43.882;-0.310;2023-02-15T02:09:33;14.65;;;10.07;;
57565;SDS011;63999;43.882;-0.310;2023-02-15T02:12:00;18.08;;;10.38;;
57565;SDS011;63999;43.882;-0.310;2023-02-15T02:14:26;14.20;;;10.00;;
57565;SDS011;63999;43.882;-0.310;2023-02-15T02:20:01;16.85;;;9.88;;
57565;SDS011;63999;43.882;-0.310;2023-02-15T02:36:55;14.15;;;9.98;;
57565;SDS011;63999;43.882;-0.310;2023-02-15T02:39:49;14.30;;;9.93;;
57565;SDS011;63999;43.882;-0.310;2023-02-15T02:42:43;15.88;;;10.02;;
57565;SDS011;63999;43.882;-0.310;2023-02-15T02:47:52;15.93;;;10.15;;
57565;SDS011;63999;43.882;-0.310;2023-02-15T02:50:33;10.75;;;9.15;;
57565;SDS011;63999;43.882;-0.310;2023-02-15T02:52:58;10.02;;;8.32;;
57565;SDS011;63999;43.882;-0.310;2023-02-15T03:00:57;8.98;;;7.57;;
57565;SDS011;63999;43.882;-0.310;2023-02-15T03:03:24;11.77;;;9.00;;
57565;SDS011;63999;43.882;-0.310;2023-02-15T03:05:54;8.88;;;7.60;;
57565;SDS011;63999;43.882;-0.310;2023-02-15T03:08:25;12.18;;;8.18;;
57565;SDS011;63999;43.882;-0.310;2023-02-15T03:10:58;10.10;;;7.95;;
57565;SDS011;63999;43.882;-0.310;2023-02-15T03:13:26;9.07;;;7.03;;
57565;SDS011;63999;43.882;-0.310;2023-02-15T03:15:53;10.60;;;7.90;;
57565;SDS011;63999;43.882;-0.310;2023-02-15T03:18:41;9.65;;;7.65;;
57565;SDS011;63999;43.882;-0.310;2023-02-15T03:21:09;11.35;;;8.55;;
57565;SDS011;63999;43.882;-0.310;2023-02-15T03:23:51;10.73;;;7.72;;
57565;SDS011;63999;43.882;-0.310;2023-02-15T03:26:20;11.05;;;8.57;;
57565;SDS011;63999;43.882;-0.310;2023-02-15T03:28:52;7.75;;;6.90;;
57565;SDS011;63999;43.882;-0.310;2023-02-15T03:31:20;12.52;;;9.95;;
57565;SDS011;63999;43.882;-0.310;2023-02-15T03:34:00;12.38;;;10.00;;
57565;SDS011;63999;43.882;-0.310;2023-02-15T03:42:05;10.55;;;7.78;;
57565;SDS011;63999;43.882;-0.310;2023-02-15T03:47:27;9.75;;;8.02;;
57565;SDS011;63999;43.882;-0.310;2023-02-15T03:50:10;10.77;;;9.20;;
57565;SDS011;63999;43.882;-0.310;2023-02-15T03:53:05;8.32;;;7.43;;
57565;SDS011;63999;43.882;-0.310;2023-02-15T03:55:34;8.88;;;7.88;;
57565;SDS011;63999;43.882;-0.310;2023-02-15T03:58:01;7.95;;;7.13;;
57565;SDS011;63999;43.882;-0.310;2023-02-15T04:00:54;13.30;;;8.73;;
57565;SDS011;63999;43.882;-0.310;2023-02-15T04:06:32;13.55;;;9.50;;
57565;SDS011;63999;43.882;-0.310;2023-02-15T04:08:58;13.70;;;10.00;;
57565;SDS011;63999;43.882;-0.310;2023-02-15T04:11:43;13.60;;;9.40;;
57565;SDS011;63999;43.882;-0.310;2023-02-15T04:14:08;11.25;;;9.20;;
57565;SDS011;63999;43.882;-0.310;2023-02-15T04:16:53;11.85;;;8.80;;
57565;SDS011;63999;43.882;-0.310;2023-02-15T04:19:18;10.35;;;7.35;;
57565;SDS011;63999;43.882;-0.310;2023-02-15T04:22:03;16.00;;;9.90;;
57565;SDS011;63999;43.882;-0.310;2023-02-15T04:24:47;13.85;;;9.50;;
57565;SDS011;63999;43.882;-0.310;2023-02-15T04:27:31;14.82;;;9.93;;
57565;SDS011;63999;43.882;-0.310;2023-02-15T04:29:57;16.13;;;10.55;;
57565;SDS011;63999;43.882;-0.310;2023-02-15T04:32:22;12.95;;;9.63;;
57565;SDS011;63999;43.882;-0.310;2023-02-15T04:34:48;15.13;;;10.73;;
57565;SDS011;63999;43.882;-0.310;2023-02-15T04:37:14;15.73;;;10.23;;
57565;SDS011;63999;43.882;-0.310;2023-02-15T04:39:40;14.00;;;10.18;;
57565;SDS011;63999;43.882;-0.310;2023-02-15T04:42:05;13.48;;;10.20;;
57565;SDS011;63999;43.882;-0.310;2023-02-15T04:44:31;16.00;;;10.27;;
57565;SDS011;63999;43.882;-0.310;2023-02-15T04:46:57;14.05;;;9.63;;
57565;SDS011;63999;43.882;-0.310;2023-02-15T04:49:22;15.85;;;10.38;;
57565;SDS011;63999;43.882;-0.310;2023-02-15T04:51:48;16.33;;;10.60;;
57565;SDS011;63999;43.882;-0.310;2023-02-15T04:54:14;14.35;;;9.85;;
57565;SDS011;63999;43.882;-0.310;2023-02-15T04:56:40;14.02;;;10.27;;
57565;SDS011;63999;43.882;-0.310;2023-02-15T04:59:09;14.93;;;10.60;;
57565;SDS011;63999;43.882;-0.310;2023-02-15T05:01:35;14.93;;;10.25;;
57565;SDS011;63999;43.882;-0.310;2023-02-15T05:04:01;14.27;;;10.45;;
57565;SDS011;63999;43.882;-0.310;2023-02-15T05:06:28;15.00;;;10.57;;
57565;SDS011;63999;43.882;-0.310;2023-02-15T05:08:54;13.52;;;10.00;;
57565;SDS011;63999;43.882;-0.310;2023-02-15T05:11:21;16.65;;;10.70;;
57565;SDS011;63999;43.882;-0.310;2023-02-15T05:13:47;14.15;;;10.32;;
57565;SDS011;63999;43.882;-0.310;2023-02-15T05:16:13;16.25;;;9.90;;
57565;SDS011;63999;43.882;-0.310;2023-02-15T05:18:39;12.80;;;9.30;;
57565;SDS011;63999;43.882;-0.310;2023-02-15T05:21:05;13.07;;;9.52;;
57565;SDS011;63999;43.882;-0.310;2023-02-15T05:23:31;11.63;;;8.50;;
57565;SDS011;63999;43.882;-0.310;2023-02-15T05:25:57;13.05;;;8.52;;
57565;SDS011;63999;43.882;-0.310;2023-02-15T05:28:41;11.00;;;8.50;;
57565;SDS011;63999;43.882;-0.310;2023-02-15T05:31:12;15.05;;;9.75;;
57565;SDS011;63999;43.882;-0.310;2023-02-15T05:33:43;15.50;;;10.07;;
57565;SDS011;63999;43.882;-0.310;2023-02-15T05:36:10;14.82;;;10.40;;
57565;SDS011;63999;43.882;-0.310;2023-02-15T05:38:36;14.98;;;10.57;;
57565;SDS011;63999;43.882;-0.310;2023-02-15T05:41:03;14.10;;;9.65;;
57565;SDS011;63999;43.882;-0.310;2023-02-15T05:43:30;14.80;;;9.88;;
57565;SDS011;63999;43.882;-0.310;2023-02-15T05:45:56;13.05;;;9.73;;
57565;SDS011;63999;43.882;-0.310;2023-02-15T05:48:23;10.70;;;8.05;;
57565;SDS011;63999;43.882;-0.310;2023-02-15T05:51:06;9.00;;;7.10;;
57565;SDS011;63999;43.882;-0.310;2023-02-15T05:53:35;11.82;;;8.63;;
57565;SDS011;63999;43.882;-0.310;2023-02-15T05:56:02;13.35;;;9.80;;
57565;SDS011;63999;43.882;-0.310;2023-02-15T05:58:31;36.75;;;25.30;;
57565;SDS011;63999;43.882;-0.310;2023-02-15T06:00:59;60.25;;;38.75;;
57565;SDS011;63999;43.882;-0.310;2023-02-15T06:03:25;41.28;;;28.50;;
57565;SDS011;63999;43.882;-0.310;2023-02-15T06:05:53;16.65;;;11.88;;
57565;SDS011;63999;43.882;-0.310;2023-02-15T06:08:19;21.10;;;14.88;;
57565;SDS011;63999;43.882;-0.310;2023-02-15T06:10:45;16.10;;;12.60;;
57565;SDS011;63999;43.882;-0.310;2023-02-15T06:13:11;15.40;;;11.40;;
57565;SDS011;63999;43.882;-0.310;2023-02-15T06:15:37;14.32;;;10.70;;
57565;SDS011;63999;43.882;-0.310;2023-02-15T06:18:03;17.13;;;10.45;;
57565;SDS011;63999;43.882;-0.310;2023-02-15T06:20:29;13.75;;;10.55;;
57565;SDS011;63999;43.882;-0.310;2023-02-15T06:22:55;12.02;;;9.68;;
57565;SDS011;63999;43.882;-0.310;2023-02-15T06:25:20;13.40;;;10.82;;
57565;SDS011;63999;43.882;-0.310;2023-02-15T06:27:46;13.65;;;10.88;;
57565;SDS011;63999;43.882;-0.310;2023-02-15T06:30:12;13.23;;;11.23;;
57565;SDS011;63999;43.882;-0.310;2023-02-15T06:32:38;18.90;;;14.38;;
57565;SDS011;63999;43.882;-0.310;2023-02-15T06:35:05;19.60;;;14.38;;
57565;SDS011;63999;43.882;-0.310;2023-02-15T06:37:31;14.25;;;12.70;;
57565;SDS011;63999;43.882;-0.310;2023-02-15T06:39:57;15.38;;;12.15;;
57565;SDS011;63999;43.882;-0.310;2023-02-15T06:42:23;15.80;;;12.25;;
57565;SDS011;63999;43.882;-0.310;2023-02-15T06:44:49;17.58;;;11.95;;
57565;SDS011;63999;43.882;-0.310;2023-02-15T06:47:15;16.08;;;12.30;;
57565;SDS011;63999;43.882;-0.310;2023-02-15T06:49:42;17.48;;;12.63;;
57565;SDS011;63999;43.882;-0.310;2023-02-15T06:52:08;17.00;;;12.40;;
57565;SDS011;63999;43.882;-0.310;2023-02-15T06:54:34;17.45;;;14.02;;
57565;SDS011;63999;43.882;-0.310;2023-02-15T06:56:59;23.92;;;17.90;;
57565;SDS011;63999;43.882;-0.310;2023-02-15T06:59:26;22.25;;;15.80;;
57565;SDS011;63999;43.882;-0.310;2023-02-15T07:01:52;20.80;;;16.42;;
57565;SDS011;63999;43.882;-0.310;2023-02-15T07:04:18;21.65;;;16.95;;
57565;SDS011;63999;43.882;-0.310;2023-02-15T07:06:44;25.17;;;18.48;;
57565;SDS011;63999;43.882;-0.310;2023-02-15T07:09:10;22.63;;;17.35;;
57565;SDS011;63999;43.882;-0.310;2023-02-15T07:11:37;21.35;;;15.93;;
57565;SDS011;63999;43.882;-0.310;2023-02-15T07:14:22;23.48;;;16.40;;
57565;SDS011;63999;43.882;-0.310;2023-02-15T07:16:48;23.17;;;16.70;;
57565;SDS011;63999;43.882;-0.310;2023-02-15T07:19:14;23.00;;;16.75;;
57565;SDS011;63999;43.882;-0.310;2023-02-15T07:21:41;26.60;;;19.33;;
57565;SDS011;63999;43.882;-0.310;2023-02-15T07:24:07;22.98;;;18.50;;
57565;SDS011;63999;43.882;-0.310;2023-02-15T07:26:33;24.05;;;16.20;;
57565;SDS011;63999;43.882;-0.310;2023-02-15T07:28:59;22.60;;;17.05;;
57565;SDS011;63999;43.882;-0.310;2023-02-15T07:31:25;27.33;;;18.48;;
57565;SDS011;63999;43.882;-0.310;2023-02-15T07:33:56;25.38;;;19.17;;
57565;SDS011;63999;43.882;-0.310;2023-02-15T07:36:22;29.45;;;22.33;;
57565;SDS011;63999;43.882;-0.310;2023-02-15T07:38:47;38.47;;;25.17;;
57565;SDS011;63999;43.882;-0.310;2023-02-15T07:41:15;30.27;;;22.83;;
57565;SDS011;63999;43.882;-0.310;2023-02-15T07:43:43;33.40;;;23.95;;
57565;SDS011;63999;43.882;-0.310;2023-02-15T07:46:10;32.45;;;23.92;;
57565;SDS011;63999;43.882;-0.310;2023-02-15T07:48:40;29.95;;;22.30;;
57565;SDS011;63999;43.882;-0.310;2023-02-15T07:51:08;33.25;;;23.35;;
57565;SDS011;63999;43.882;-0.310;2023-02-15T07:53:35;33.50;;;23.35;;
57565;SDS011;63999;43.882;-0.310;2023-02-15T07:56:02;35.60;;;23.92;;
57565;SDS011;63999;43.882;-0.310;2023-02-15T07:58:29;29.90;;;21.65;;
57565;SDS011;63999;43.882;-0.310;2023-02-15T08:01:14;25.45;;;20.92;;
57565;SDS011;63999;43.882;-0.310;2023-02-15T08:03:40;25.83;;;19.15;;
57565;SDS011;63999;43.882;-0.310;2023-02-15T08:06:06;23.05;;;17.25;;
57565;SDS011;63999;43.882;-0.310;2023-02-15T08:08:33;24.67;;;18.35;;
57565;SDS011;63999;43.882;-0.310;2023-02-15T08:11:17;19.48;;;15.43;;
57565;SDS011;63999;43.882;-0.310;2023-02-15T08:14:05;20.52;;;16.25;;
57565;SDS011;63999;43.882;-0.310;2023-02-15T08:16:43;25.38;;;19.38;;
57565;SDS011;63999;43.882;-0.310;2023-02-15T08:21:47;15.50;;;11.48;;
57565;SDS011;63999;43.882;-0.310;2023-02-15T08:24:15;14.55;;;11.68;;
57565;SDS011;63999;43.882;-0.310;2023-02-15T08:26:43;13.38;;;10.75;;
57565;SDS011;63999;43.882;-0.310;2023-02-15T08:29:13;11.82;;;9.95;;
57565;SDS011;63999;43.882;-0.310;2023-02-15T08:31:40;11.57;;;8.88;;
57565;SDS011;63999;43.882;-0.310;2023-02-15T08:34:07;11.93;;;8.73;;
57565;SDS011;63999;43.882;-0.310;2023-02-15T08:36:33;9.35;;;8.35;;
57565;SDS011;63999;43.882;-0.310;2023-02-15T08:39:02;14.50;;;11.38;;
57565;SDS011;63999;43.882;-0.310;2023-02-15T08:41:35;19.77;;;11.80;;
57565;SDS011;63999;43.882;-0.310;2023-02-15T08:44:03;15.63;;;11.05;;
57565;SDS011;63999;43.882;-0.310;2023-02-15T08:46:34;14.90;;;11.88;;
57565;SDS011;63999;43.882;-0.310;2023-02-15T08:49:02;17.55;;;12.90;;
57565;SDS011;63999;43.882;-0.310;2023-02-15T08:51:30;14.80;;;12.48;;
57565;SDS011;63999;43.882;-0.310;2023-02-15T08:53:59;19.67;;;13.73;;
57565;SDS011;63999;43.882;-0.310;2023-02-15T08:56:36;17.10;;;12.88;;
57565;SDS011;63999;43.882;-0.310;2023-02-15T08:59:03;20.23;;;13.45;;
57565;SDS011;63999;43.882;-0.310;2023-02-15T09:01:32;17.35;;;13.30;;
57565;SDS011;63999;43.882;-0.310;2023-02-15T09:04:05;19.15;;;14.55;;
57565;SDS011;63999;43.882;-0.310;2023-02-15T09:06:33;20.63;;;13.93;;
57565;SDS011;63999;43.882;-0.310;2023-02-15T09:09:02;18.95;;;13.32;;
57565;SDS011;63999;43.882;-0.310;2023-02-15T09:11:32;18.23;;;13.40;;
57565;SDS011;63999;43.882;-0.310;2023-02-15T09:14:16;18.48;;;13.93;;
57565;SDS011;63999;43.882;-0.310;2023-02-15T09:16:51;20.35;;;14.80;;
57565;SDS011;63999;43.882;-0.310;2023-02-15T09:19:20;20.27;;;13.18;;
57565;SDS011;63999;43.882;-0.310;2023-02-15T09:21:48;22.63;;;14.27;;
57565;SDS011;63999;43.882;-0.310;2023-02-15T09:24:15;20.60;;;14.98;;
57565;SDS011;63999;43.882;-0.310;2023-02-15T09:26:42;24.17;;;16.08;;
57565;SDS011;63999;43.882;-0.310;2023-02-15T09:29:10;20.83;;;13.35;;
57565;SDS011;63999;43.882;-0.310;2023-02-15T09:31:41;19.33;;;15.32;;
57565;SDS011;63999;43.882;-0.310;2023-02-15T09:34:10;22.42;;;15.02;;
57565;SDS011;63999;43.882;-0.310;2023-02-15T09:36:38;20.90;;;15.80;;
57565;SDS011;63999;43.882;-0.310;2023-02-15T09:39:12;17.98;;;12.68;;
57565;SDS011;63999;43.882;-0.310;2023-02-15T09:56:19;15.27;;;11.75;;
57565;SDS011;63999;43.882;-0.310;2023-02-15T10:07:29;20.98;;;14.50;;
57565;SDS011;63999;43.882;-0.310;2023-02-15T10:10:18;20.58;;;13.27;;
57565;SDS011;63999;43.882;-0.310;2023-02-15T10:15:21;20.08;;;15.23;;
57565;SDS011;63999;43.882;-0.310;2023-02-15T10:18:19;19.67;;;15.10;;
57565;SDS011;63999;43.882;-0.310;2023-02-15T10:21:04;16.50;;;12.68;;
57565;SDS011;63999;43.882;-0.310;2023-02-15T10:26:36;18.08;;;13.00;;
57565;SDS011;63999;43.882;-0.310;2023-02-15T10:29:53;19.85;;;13.93;;
57565;SDS011;63999;43.882;-0.310;2023-02-15T10:32:10;14.73;;;11.50;;
57565;SDS011;63999;43.882;-0.310;2023-02-15T10:34:51;18.70;;;12.52;;
57565;SDS011;63999;43.882;-0.310;2023-02-15T10:42:57;19.80;;;14.43;;
57565;SDS011;63999;43.882;-0.310;2023-02-15T10:54:22;19.63;;;13.45;;
57565;SDS011;63999;43.882;-0.310;2023-02-15T11:02:35;18.38;;;13.02;;
57565;SDS011;63999;43.882;-0.310;2023-02-15T11:07:55;26.88;;;23.33;;
57565;SDS011;63999;43.882;-0.310;2023-02-15T11:10:44;15.43;;;12.35;;
57565;SDS011;63999;43.882;-0.310;2023-02-15T11:13:20;17.50;;;12.55;;
57565;SDS011;63999;43.882;-0.310;2023-02-15T11:23:24;24.77;;;22.10;;
57565;SDS011;63999;43.882;-0.310;2023-02-15T11:25:56;15.15;;;11.98;;
57565;SDS011;63999;43.882;-0.310;2023-02-15T11:31:01;15.27;;;11.27;;
57565;SDS011;63999;43.882;-0.310;2023-02-15T11:33:38;26.05;;;23.42;;
57565;SDS011;63999;43.882;-0.310;2023-02-15T11:36:12;20.60;;;17.50;;
57565;SDS011;63999;43.882;-0.310;2023-02-15T11:38:54;22.70;;;17.70;;
57565;SDS011;63999;43.882;-0.310;2023-02-15T11:41:27;14.73;;;10.52;;
57565;SDS011;63999;43.882;-0.310;2023-02-15T11:46:43;19.92;;;15.80;;
57565;SDS011;63999;43.882;-0.310;2023-02-15T11:49:20;19.25;;;17.25;;
57565;SDS011;63999;43.882;-0.310;2023-02-15T11:51:50;14.20;;;11.52;;
57565;SDS011;63999;43.882;-0.310;2023-02-15T11:54:21;16.13;;;10.18;;
57565;SDS011;63999;43.882;-0.310;2023-02-15T11:56:58;15.02;;;9.30;;
57565;SDS011;63999;43.882;-0.310;2023-02-15T11:59:31;20.67;;;15.82;;
57565;SDS011;63999;43.882;-0.310;2023-02-15T12:02:01;13.55;;;8.48;;
57565;SDS011;63999;43.882;-0.310;2023-02-15T12:04:32;11.80;;;8.63;;
57565;SDS011;63999;43.882;-0.310;2023-02-15T12:09:52;12.32;;;7.68;;
57565;SDS011;63999;43.882;-0.310;2023-02-15T12:14:58;13.35;;;9.25;;
57565;SDS011;63999;43.882;-0.310;2023-02-15T12:17:33;13.27;;;8.10;;
57565;SDS011;63999;43.882;-0.310;2023-02-15T12:20:04;11.43;;;7.80;;
57565;SDS011;63999;43.882;-0.310;2023-02-15T12:22:53;13.73;;;11.73;;
57565;SDS011;63999;43.882;-0.310;2023-02-15T12:25:42;10.35;;;7.57;;
57565;SDS011;63999;43.882;-0.310;2023-02-15T12:31:31;9.73;;;7.70;;
57565;SDS011;63999;43.882;-0.310;2023-02-15T12:34:09;11.02;;;7.65;;
57565;SDS011;63999;43.882;-0.310;2023-02-15T12:36:42;12.40;;;7.93;;
57565;SDS011;63999;43.882;-0.310;2023-02-15T12:41:37;13.88;;;8.32;;
57565;SDS011;63999;43.882;-0.310;2023-02-15T12:44:24;15.67;;;13.13;;
57565;SDS011;63999;43.882;-0.310;2023-02-15T12:46:58;14.07;;;11.55;;
57565;SDS011;63999;43.882;-0.310;2023-02-15T12:49:27;11.73;;;7.15;;
57565;SDS011;63999;43.882;-0.310;2023-02-15T12:51:55;10.75;;;7.07;;
57565;SDS011;63999;43.882;-0.310;2023-02-15T12:57:12;12.82;;;6.20;;
57565;SDS011;63999;43.882;-0.310;2023-02-15T13:00:24;16.23;;;11.15;;
57565;SDS011;63999;43.882;-0.310;2023-02-15T13:02:41;9.98;;;5.97;;
57565;SDS011;63999;43.882;-0.310;2023-02-15T13:10:57;12.05;;;8.93;;
57565;SDS011;63999;43.882;-0.310;2023-02-15T13:13:36;22.15;;;14.63;;
57565;SDS011;63999;43.882;-0.310;2023-02-15T13:16:20;17.20;;;13.18;;
57565;SDS011;63999;43.882;-0.310;2023-02-15T13:18:55;21.17;;;16.63;;
57565;SDS011;63999;43.882;-0.310;2023-02-15T13:21:25;12.75;;;8.25;;
57565;SDS011;63999;43.882;-0.310;2023-02-15T13:26:26;10.93;;;7.43;;
57565;SDS011;63999;43.882;-0.310;2023-02-15T13:28:55;11.50;;;7.03;;
57565;SDS011;63999;43.882;-0.310;2023-02-15T13:31:37;7.88;;;5.90;;
57565;SDS011;63999;43.882;-0.310;2023-02-15T13:34:12;11.52;;;9.07;;
57565;SDS011;63999;43.882;-0.310;2023-02-15T13:37:02;7.30;;;4.97;;
57565;SDS011;63999;43.882;-0.310;2023-02-15T13:39:42;10.60;;;6.68;;
57565;SDS011;63999;43.882;-0.310;2023-02-15T13:47:51;8.40;;;5.43;;
57565;SDS011;63999;43.882;-0.310;2023-02-15T14:01:40;7.80;;;4.57;;
57565;SDS011;63999;43.882;-0.310;2023-02-15T14:12:52;7.70;;;4.82;;
57565;SDS011;63999;43.882;-0.310;2023-02-15T14:23:33;5.75;;;4.20;;
57565;SDS011;63999;43.882;-0.310;2023-02-15T14:32:08;7.15;;;4.15;;
57565;SDS011;63999;43.882;-0.310;2023-02-15T14:34:46;8.35;;;4.18;;
57565;SDS011;63999;43.882;-0.310;2023-02-15T14:37:19;11.77;;;4.70;;
57565;SDS011;63999;43.882;-0.310;2023-02-15T14:43:18;7.93;;;4.15;;
57565;SDS011;63999;43.882;-0.310;2023-02-15T14:48:26;9.02;;;6.10;;
57565;SDS011;63999;43.882;-0.310;2023-02-15T14:51:01;7.03;;;5.60;;
57565;SDS011;63999;43.882;-0.310;2023-02-15T14:56:05;6.28;;;4.60;;
57565;SDS011;63999;43.882;-0.310;2023-02-15T15:01:34;7.15;;;4.63;;
57565;SDS011;63999;43.882;-0.310;2023-02-15T15:04:13;7.10;;;4.65;;
57565;SDS011;63999;43.882;-0.310;2023-02-15T15:06:57;6.57;;;4.30;;
57565;SDS011;63999;43.882;-0.310;2023-02-15T15:09:37;7.35;;;4.93;;
57565;SDS011;63999;43.882;-0.310;2023-02-15T15:12:35;6.85;;;5.18;;
57565;SDS011;63999;43.882;-0.310;2023-02-15T15:14:53;8.45;;;5.05;;
57565;SDS011;63999;43.882;-0.310;2023-02-15T15:20:04;5.93;;;4.45;;
57565;SDS011;63999;43.882;-0.310;2023-02-15T15:22:34;5.97;;;3.90;;
57565;SDS011;63999;43.882;-0.310;2023-02-15T15:25:10;6.32;;;4.82;;
57565;SDS011;63999;43.882;-0.310;2023-02-15T15:32:57;5.70;;;3.58;;
57565;SDS011;63999;43.882;-0.310;2023-02-15T15:41:32;7.32;;;3.20;;
57565;SDS011;63999;43.882;-0.310;2023-02-15T15:50:14;4.65;;;3.25;;
57565;SDS011;63999;43.882;-0.310;2023-02-15T15:52:44;6.03;;;3.60;;
57565;SDS011;63999;43.882;-0.310;2023-02-15T15:55:20;5.32;;;3.97;;
57565;SDS011;63999;43.882;-0.310;2023-02-15T15:57:52;7.60;;;4.20;;
57565;SDS011;63999;43.882;-0.310;2023-02-15T16:02:59;6.05;;;3.28;;
57565;SDS011;63999;43.882;-0.310;2023-02-15T16:05:25;5.82;;;3.00;;
57565;SDS011;63999;43.882;-0.310;2023-02-15T16:07:51;5.10;;;3.75;;
57565;SDS011;63999;43.882;-0.310;2023-02-15T16:10:21;5.57;;;2.88;;
57565;SDS011;63999;43.882;-0.310;2023-02-15T16:15:23;5.00;;;3.03;;
57565;SDS011;63999;43.882;-0.310;2023-02-15T16:18:00;6.60;;;3.20;;
57565;SDS011;63999;43.882;-0.310;2023-02-15T16:20:33;5.07;;;3.22;;
57565;SDS011;63999;43.882;-0.310;2023-02-15T16:28:12;5.47;;;3.75;;
57565;SDS011;63999;43.882;-0.310;2023-02-15T16:30:39;5.80;;;4.45;;
57565;SDS011;63999;43.882;-0.310;2023-02-15T16:35:37;8.88;;;4.90;;
57565;SDS011;63999;43.882;-0.310;2023-02-15T16:38:08;8.00;;;4.40;;
57565;SDS011;63999;43.882;-0.310;2023-02-15T16:40:51;7.05;;;4.50;;
57565;SDS011;63999;43.882;-0.310;2023-02-15T16:43:26;7.10;;;3.92;;
57565;SDS011;63999;43.882;-0.310;2023-02-15T16:46:06;5.10;;;3.67;;
57565;SDS011;63999;43.882;-0.310;2023-02-15T16:48:38;8.10;;;3.80;;
57565;SDS011;63999;43.882;-0.310;2023-02-15T16:51:08;6.95;;;3.95;;
57565;SDS011;63999;43.882;-0.310;2023-02-15T16:53:34;9.88;;;3.50;;
57565;SDS011;63999;43.882;-0.310;2023-02-15T16:56:04;6.10;;;3.40;;
57565;SDS011;63999;43.882;-0.310;2023-02-15T16:58:38;7.60;;;3.05;;
57565;SDS011;63999;43.882;-0.310;2023-02-15T17:01:08;8.95;;;3.30;;
57565;SDS011;63999;43.882;-0.310;2023-02-15T17:03:37;5.15;;;3.40;;
57565;SDS011;63999;43.882;-0.310;2023-02-15T17:06:04;7.45;;;3.70;;
57565;SDS011;63999;43.882;-0.310;2023-02-15T17:09:02;5.35;;;3.20;;
57565;SDS011;63999;43.882;-0.310;2023-02-15T17:11:40;6.70;;;4.00;;
57565;SDS011;63999;43.882;-0.310;2023-02-15T17:16:36;4.50;;;3.25;;
57565;SDS011;63999;43.882;-0.310;2023-02-15T17:19:13;6.82;;;3.30;;
57565;SDS011;63999;43.882;-0.310;2023-02-15T17:21:49;9.82;;;3.40;;
57565;SDS011;63999;43.882;-0.310;2023-02-15T17:24:44;5.40;;;3.30;;
57565;SDS011;63999;43.882;-0.310;2023-02-15T17:27:20;9.85;;;3.45;;
57565;SDS011;63999;43.882;-0.310;2023-02-15T17:29:50;6.47;;;3.30;;
57565;SDS011;63999;43.882;-0.310;2023-02-15T17:32:27;5.45;;;3.38;;
57565;SDS011;63999;43.882;-0.310;2023-02-15T17:37:46;9.63;;;4.70;;
57565;SDS011;63999;43.882;-0.310;2023-02-15T17:40:23;8.02;;;4.75;;
57565;SDS011;63999;43.882;-0.310;2023-02-15T17:42:59;8.73;;;5.00;;
57565;SDS011;63999;43.882;-0.310;2023-02-15T17:45:30;7.47;;;4.70;;
57565;SDS011;63999;43.882;-0.310;2023-02-15T17:50:26;7.57;;;4.93;;
57565;SDS011;63999;43.882;-0.310;2023-02-15T17:52:53;6.18;;;4.43;;
57565;SDS011;63999;43.882;-0.310;2023-02-15T17:55:21;6.30;;;4.53;;
57565;SDS011;63999;43.882;-0.310;2023-02-15T17:58:04;9.98;;;5.00;;
57565;SDS011;63999;43.882;-0.310;2023-02-15T18:00:36;9.27;;;4.93;;
57565;SDS011;63999;43.882;-0.310;2023-02-15T18:03:24;11.25;;;7.65;;
57565;SDS011;63999;43.882;-0.310;2023-02-15T18:06:13;17.88;;;12.35;;
57565;SDS011;63999;43.882;-0.310;2023-02-15T18:08:58;11.38;;;7.18;;
57565;SDS011;63999;43.882;-0.310;2023-02-15T18:11:42;8.65;;;6.10;;
57565;SDS011;63999;43.882;-0.310;2023-02-15T18:14:12;8.57;;;5.15;;
57565;SDS011;63999;43.882;-0.310;2023-02-15T18:16:39;9.25;;;5.05;;
57565;SDS011;63999;43.882;-0.310;2023-02-15T18:19:40;7.03;;;4.78;;
57565;SDS011;63999;43.882;-0.310;2023-02-15T18:22:00;7.35;;;5.05;;
57565;SDS011;63999;43.882;-0.310;2023-02-15T18:24:26;7.22;;;4.70;;